Terminal Aerodrome Forecast
Issued by NWS Wilmington, NC

Home | Current Version | Previous Version | Text Only | Print | Product List | Glossary On
Versions: 1 2 3 4 5 6 7 8 9 10 11 12 13 14 15 16 17 18 19 20 21
000
FTUS42 KILM 300001 CCA
TAFMYR
TAF COR
KMYR 300001Z 3000/3024 19004KT P6SM FEW250
     FM301200 20006KT P6SM BKN050
     FM301400 23012G22KT P6SM VCSH SCT025 OVC040
      TEMPO 3017/3020 4SM -RA SCT015 BKN025
     FM302100 26012G20KT P6SM SCT020 SCT050
      AMD LTD TO CLD VIS AND WIND 3004/3011=

USA.gov is the U.S. government's official web portal to all federal, state and local government web resources and services.